| time (UTC) | temp F | wind direction | speed MPH | gust MPH | rain 1hr in | rain 24hr in | rain mn in | humidity % | barometer mb |
| 20260901104705 | 72 | 289 | 0.0 | 1.0 | 0.00 | 0.25 | 0.00 | 95 | 1015.0 |
| 20260901103526 | 73 | 321 | 0.0 | 1.0 | 0.00 | 0.25 | 0.00 | 95 | 1015.1 |
| 20260901102525 | 73 | 0.0 | 0.0 | 0.00 | 0.25 | 0.00 | 95 | 1015.3 | |
| 20260901101526 | 73 | 303 | 0.0 | 1.0 | 0.00 | 0.25 | 0.00 | 95 | 1015.4 |
| 20260901100526 | 73 | 30 | 0.0 | 1.0 | 0.00 | 0.25 | 0.00 | 95 | 1015.4 |
| 20260901095526 | 74 | 0.0 | 0.0 | 0.00 | 0.25 | 0.25 | 94 | 1015.4 | |
| 20260901094527 | 73 | 348 | 0.0 | 1.0 | 0.00 | 0.25 | 0.25 | 94 | 1015.5 |
| 20260901093526 | 73 | 282 | 0.0 | 1.0 | 0.00 | 0.25 | 0.25 | 94 | 1015.6 |
| 20260901092527 | 73 | 285 | 0.0 | 1.0 | 0.00 | 0.25 | 0.25 | 94 | 1015.7 |
| 20260901091526 | 72 | 349 | 1.0 | 3.0 | 0.00 | 0.25 | 0.25 | 94 | 1015.7 |
| 20260901090527 | 72 | 162 | 0.0 | 1.0 | 0.00 | 0.25 | 0.25 | 94 | 1015.7 |
| 20260901085527 | 73 | 359 | 0.0 | 0.0 | 0.00 | 0.25 | 0.25 | 93 | 1015.8 |
| 20260901084527 | 73 | 294 | 0.0 | 1.0 | 0.00 | 0.25 | 0.25 | 93 | 1015.8 |
| 20260901083707 | 73 | 296 | 0.0 | 1.0 | 0.00 | 0.25 | 0.25 | 94 | 1015.9 |
| 20260901082527 | 74 | 32 | 0.0 | 1.0 | 0.00 | 0.25 | 0.25 | 94 | 1015.9 |
| 20260901081528 | 74 | 263 | 0.0 | 2.0 | 0.00 | 0.25 | 0.25 | 94 | 1016.0 |
| 20260901080528 | 74 | 245 | 0.0 | 1.0 | 0.00 | 0.25 | 0.25 | 95 | 1016.0 |
| 20260901075529 | 74 | 220 | 0.0 | 1.0 | 0.00 | 0.27 | 0.25 | 95 | 1016.0 |
| 20260901074527 | 74 | 158 | 0.0 | 1.0 | 0.06 | 0.27 | 0.25 | 95 | 1016.1 |
| 20260901073529 | 74 | 268 | 0.0 | 1.0 | 0.07 | 0.27 | 0.25 | 94 | 1016.1 |
| 20260901072517 | 73 | 56 | 0.0 | 2.0 | 0.07 | 0.27 | 0.25 | 94 | 1016.1 |
| 20260901071517 | 74 | 244 | 0.0 | 2.0 | 0.07 | 0.27 | 0.25 | 94 | 1015.9 |
| 20260901070658 | 74 | 278 | 1.0 | 2.0 | 0.07 | 0.27 | 0.25 | 93 | 1015.9 |
| 20260901065518 | 74 | 294 | 0.0 | 1.0 | 0.07 | 0.27 | 0.25 | 92 | 1015.7 |
| 20260901064520 | 74 | 39 | 2.0 | 5.0 | 0.00 | 0.21 | 0.19 | 92 | 1015.6 |
| 20260901063518 | 74 | 0.0 | 0.0 | 0.00 | 0.20 | 0.19 | 92 | 1015.5 | |
| 20260901062519 | 74 | 0.0 | 0.0 | 0.00 | 0.20 | 0.19 | 92 | 1015.4 | |
| 20260901061836 | 74 | 270 | 0.0 | 2.0 | 0.00 | 0.20 | 0.19 | 91 | 1015.3 |
| 20260901060516 | 75 | 227 | 0.0 | 3.0 | 0.00 | 0.20 | 0.19 | 90 | 1015.3 |
| 20260901055516 | 75 | 266 | 1.0 | 2.0 | 0.00 | 0.20 | 0.19 | 89 | 1015.2 |
| 20260901054516 | 76 | 297 | 0.0 | 3.0 | 0.00 | 0.20 | 0.19 | 87 | 1015.2 |
| 20260901053517 | 76 | 360 | 1.0 | 3.0 | 0.00 | 0.20 | 0.19 | 86 | 1015.2 |
| 20260901052517 | 76 | 76 | 1.0 | 5.0 | 0.00 | 0.20 | 0.19 | 86 | 1015.2 |
| 20260901051517 | 76 | 144 | 0.0 | 1.0 | 0.00 | 0.20 | 0.19 | 87 | 1015.1 |
| 20260901050516 | 76 | 88 | 0.0 | 3.0 | 0.00 | 0.20 | 0.19 | 87 | 1015.0 |
| 20260901045517 | 76 | 47 | 1.0 | 5.0 | 0.00 | 0.20 | 0.19 | 87 | 1014.9 |
| 20260901044517 | 75 | 55 | 1.0 | 4.0 | 0.00 | 0.20 | 0.19 | 88 | 1014.7 |
| 20260901043519 | 75 | 34 | 1.0 | 5.0 | 0.00 | 0.20 | 0.19 | 88 | 1014.6 |
| 20260901042517 | 75 | 39 | 2.0 | 4.0 | 0.00 | 0.20 | 0.19 | 89 | 1014.5 |
| 20260901041517 | 75 | 54 | 1.0 | 5.0 | 0.06 | 0.20 | 0.19 | 90 | 1014.4 |
| 20260901040518 | 74 | 50 | 1.0 | 5.0 | 0.06 | 0.20 | 0.19 | 92 | 1014.3 |
| 20260901035518 | 74 | 246 | 0.0 | 2.0 | 0.06 | 0.20 | 0.19 | 94 | 1014.3 |
| 20260901034518 | 74 | 242 | 0.0 | 1.0 | 0.06 | 0.20 | 0.19 | 94 | 1014.1 |
| 20260901033518 | 74 | 223 | 0.0 | 2.0 | 0.06 | 0.20 | 0.19 | 93 | 1014.1 |
| 20260901032519 | 75 | 224 | 0.0 | 2.0 | 0.06 | 0.20 | 0.18 | 92 | 1014.0 |
| 20260901031518 | 76 | 261 | 0.0 | 0.0 | 0.00 | 0.14 | 0.13 | 92 | 1014.0 |
| 20260901030519 | 76 | 257 | 0.0 | 1.0 | 0.00 | 0.14 | 0.13 | 91 | 1014.0 |
| 20260901025515 | 75 | 269 | 0.0 | 1.0 | 0.05 | 0.14 | 0.13 | 92 | 1014.0 |
| 20260901024516 | 75 | 205 | 0.0 | 1.0 | 0.07 | 0.14 | 0.13 | 93 | 1014.0 |
| 20260901023516 | 75 | 267 | 0.0 | 2.0 | 0.08 | 0.14 | 0.13 | 93 | 1014.0 |
| 20260901022516 | 74 | 250 | 0.0 | 1.0 | 0.08 | 0.14 | 0.13 | 92 | 1014.0 |
| 20260901021517 | 75 | 247 | 0.0 | 2.0 | 0.07 | 0.14 | 0.12 | 93 | 1014.0 |
| 20260901020516 | 75 | 223 | 0.0 | 2.0 | 0.07 | 0.14 | 0.12 | 92 | 1014.0 |
| 20260901015516 | 76 | 240 | 0.0 | 1.0 | 0.02 | 0.09 | 0.07 | 91 | 1013.9 |
| 20260901014517 | 77 | 217 | 1.0 | 3.0 | 0.00 | 0.07 | 0.05 | 88 | 1013.8 |
| 20260901013517 | 77 | 279 | 2.0 | 5.0 | 0.01 | 0.07 | 0.05 | 85 | 1013.7 |
| 20260901012518 | 77 | 298 | 0.0 | 2.0 | 0.03 | 0.07 | 0.05 | 88 | 1013.8 |
| 20260901011517 | 76 | 293 | 1.0 | 3.0 | 0.03 | 0.07 | 0.05 | 89 | 1013.9 |
| 20260901010518 | 76 | 258 | 0.0 | 2.0 | 0.03 | 0.07 | 0.05 | 90 | 1014.0 |
| 20260901005518 | 75 | 265 | 0.0 | 2.0 | 0.03 | 0.07 | 0.05 | 91 | 1014.1 |
| 20260901004519 | 75 | 258 | 0.0 | 2.0 | 0.03 | 0.07 | 0.05 | 91 | 1014.3 |
| 20260901003518 | 76 | 329 | 0.0 | 2.0 | 0.02 | 0.05 | 0.04 | 90 | 1014.4 |
| 20260901002519 | 79 | 357 | 0.0 | 3.0 | 0.01 | 0.04 | 0.02 | 85 | 1014.4 |
| 20260901001518 | 80 | 269 | 1.0 | 4.0 | 0.00 | 0.03 | 0.02 | 80 | 1014.2 |
| 20260901000656 | 78 | 296 | 1.0 | 3.0 | 0.00 | 0.03 | 0.02 | 85 | 1014.3 |
| 20260831235516 | 77 | 306 | 1.0 | 3.0 | 0.00 | 0.03 | 0.02 | 85 | 1014.4 |
| 20260831234519 | 79 | 0 | 1.0 | 3.0 | 0.00 | 0.03 | 0.02 | 80 | 1014.6 |
| 20260831233516 | 82 | 44 | 0.0 | 2.0 | 0.00 | 0.03 | 0.02 | 76 | 1014.5 |
| 20260831232516 | 82 | 26 | 1.0 | 3.0 | 0.00 | 0.03 | 0.02 | 76 | 1014.4 |
| 20260831231517 | 82 | 357 | 1.0 | 5.0 | 0.00 | 0.03 | 0.02 | 74 | 1014.5 |
| 20260831230516 | 82 | 306 | 1.0 | 4.0 | 0.00 | 0.03 | 0.02 | 75 | 1014.7 |
| 20260831225516 | 81 | 310 | 1.0 | 4.0 | 0.00 | 0.03 | 0.02 | 78 | 1014.8 |
| 20260831224517 | 80 | 294 | 1.0 | 4.0 | 0.00 | 0.03 | 0.02 | 78 | 1015.0 |
| 20260831223517 | 79 | 317 | 2.0 | 5.0 | 0.00 | 0.03 | 0.02 | 79 | 1015.2 |
| 20260831222518 | 79 | 264 | 0.0 | 1.0 | 0.00 | 0.03 | 0.02 | 78 | 1015.3 |
| 20260831221517 | 80 | 352 | 1.0 | 3.0 | 0.00 | 0.03 | 0.02 | 76 | 1015.4 |
| 20260831220517 | 80 | 319 | 1.0 | 4.0 | 0.00 | 0.03 | 0.02 | 74 | 1015.5 |
| 20260831215518 | 78 | 337 | 1.0 | 4.0 | 0.00 | 0.03 | 0.02 | 78 | 1015.7 |
| 20260831214701 | 78 | 350 | 3.0 | 6.0 | 0.00 | 0.03 | 0.02 | 81 | 1015.8 |
| 20260831213518 | 79 | 23 | 3.0 | 5.0 | 0.00 | 0.03 | 0.02 | 78 | 1015.8 |
| 20260831212517 | 79 | 350 | 2.0 | 4.0 | 0.00 | 0.03 | 0.02 | 79 | 1015.8 |
| 20260831211518 | 78 | 357 | 3.0 | 7.0 | 0.00 | 0.03 | 0.02 | 81 | 1015.8 |
| 20260831210659 | 77 | 107 | 2.0 | 4.0 | 0.00 | 0.03 | 0.02 | 84 | 1016.0 |
| 20260831205516 | 78 | 108 | 2.0 | 5.0 | 0.00 | 0.03 | 0.02 | 82 | 1016.0 |
| 20260831204516 | 80 | 102 | 2.0 | 4.0 | 0.00 | 0.03 | 0.02 | 79 | 1016.0 |
| 20260831203516 | 80 | 35 | 1.0 | 3.0 | 0.00 | 0.03 | 0.02 | 81 | 1016.1 |
| 20260831202516 | 80 | 53 | 2.0 | 4.0 | 0.00 | 0.03 | 0.02 | 80 | 1016.2 |
| 20260831201516 | 79 | 145 | 0.0 | 2.0 | 0.00 | 0.03 | 0.02 | 79 | 1016.1 |
| 20260831200657 | 77 | 196 | 0.0 | 2.0 | 0.00 | 0.03 | 0.02 | 84 | 1016.2 |
| 20260831195516 | 76 | 208 | 0.0 | 2.0 | 0.00 | 0.03 | 0.02 | 87 | 1016.3 |
| 20260831194657 | 75 | 159 | 0.0 | 1.0 | 0.00 | 0.03 | 0.02 | 91 | 1016.3 |
| 20260831193525 | 74 | 164 | 0.0 | 1.0 | 0.00 | 0.03 | 0.02 | 91 | 1016.5 |
| 20260831192706 | 73 | 205 | 1.0 | 2.0 | 0.00 | 0.03 | 0.02 | 92 | 1016.6 |
| 20260831191526 | 73 | 79 | 2.0 | 3.0 | 0.00 | 0.03 | 0.02 | 91 | 1016.6 |
| 20260831190526 | 74 | 61 | 2.0 | 5.0 | 0.00 | 0.03 | 0.01 | 92 | 1016.6 |
| 20260831185517 | 75 | 46 | 2.0 | 7.0 | 0.01 | 0.04 | 0.01 | 89 | 1016.5 |
| 20260831184706 | 75 | 63 | 0.0 | 1.0 | 0.01 | 0.04 | 0.01 | 91 | 1016.4 |
| 20260831183527 | 74 | 37 | 1.0 | 4.0 | 0.01 | 0.04 | 0.01 | 91 | 1016.2 |
| 20260831182526 | 74 | 0.0 | 0.0 | 0.01 | 0.04 | 0.01 | 91 | 1016.1 | |
| 20260831181526 | 74 | 198 | 0.0 | 1.0 | 0.01 | 0.04 | 0.01 | 88 | 1016.1 |
| 20260831180527 | 75 | 192 | 0.0 | 1.0 | 0.01 | 0.04 | 0.01 | 88 | 1016.0 |
| 20260831175707 | 75 | 0.0 | 0.0 | 0.00 | 0.04 | 0.00 | 88 | 1015.9 | |
| 20260831174527 | 74 | 0.0 | 0.0 | 0.00 | 0.04 | 0.00 | 88 | 1015.9 | |
| 20260831173527 | 74 | 200 | 0.0 | 1.0 | 0.00 | 0.04 | 0.00 | 89 | 1015.8 |
| 20260831172527 | 74 | 0.0 | 0.0 | 0.00 | 0.04 | 0.00 | 90 | 1015.7 | |
| 20260831171528 | 73 | 0.0 | 0.0 | 0.00 | 0.04 | 0.00 | 91 | 1015.7 | |
| 20260831170528 | 73 | 0.0 | 0.0 | 0.00 | 0.04 | 0.00 | 91 | 1015.6 | |
| 20260831165529 | 73 | 0.0 | 0.0 | 0.00 | 0.04 | 0.00 | 92 | 1015.5 | |
| 20260831164529 | 73 | 0.0 | 0.0 | 0.00 | 0.04 | 0.00 | 92 | 1015.5 | |
| 20260831163529 | 72 | 0.0 | 0.0 | 0.00 | 0.04 | 0.00 | 91 | 1015.6 | |
| 20260831162529 | 72 | 189 | 0.0 | 1.0 | 0.00 | 0.04 | 0.00 | 92 | 1015.5 |
| 20260831161529 | 72 | 0.0 | 0.0 | 0.00 | 0.04 | 0.00 | 91 | 1015.4 | |
| 20260831160529 | 72 | 0.0 | 0.0 | 0.00 | 0.04 | 0.00 | 92 | 1015.3 | |
| 20260831155529 | 72 | 0.0 | 0.0 | 0.00 | 0.04 | 0.00 | 90 | 1015.2 | |
| 20260831154709 | 72 | 253 | 0.0 | 1.0 | 0.00 | 0.04 | 0.00 | 90 | 1015.1 |
| 20260831153530 | 72 | 198 | 1.0 | 2.0 | 0.00 | 0.04 | 0.00 | 90 | 1015.1 |
| 20260831152709 | 72 | 0.0 | 0.0 | 0.00 | 0.04 | 0.00 | 91 | 1015.1 | |
| 20260831151529 | 72 | 0.0 | 0.0 | 0.00 | 0.04 | 0.00 | 91 | 1015.0 | |
| 20260831150529 | 72 | 215 | 0.0 | 1.0 | 0.00 | 0.04 | 0.00 | 91 | 1014.9 |
| 20260831145530 | 72 | 0.0 | 0.0 | 0.00 | 0.04 | 0.00 | 91 | 1014.9 | |
| 20260831144530 | 72 | 224 | 0.0 | 1.0 | 0.00 | 0.04 | 0.00 | 91 | 1014.8 |
| 20260831143530 | 72 | 231 | 0.0 | 0.0 | 0.00 | 0.04 | 0.00 | 91 | 1014.7 |
| 20260831142530 | 72 | 0.0 | 0.0 | 0.00 | 0.04 | 0.00 | 91 | 1014.7 | |
| 20260831141712 | 73 | 0.0 | 0.0 | 0.00 | 0.04 | 0.00 | 91 | 1014.7 | |
| 20260831140531 | 73 | 0.0 | 0.0 | 0.00 | 0.04 | 0.00 | 91 | 1014.7 | |
| 20260831135837 | 73 | 0.0 | 0.0 | 0.00 | 0.04 | 0.00 | 92 | 1014.7 | |
| 20260831134516 | 72 | 229 | 0.0 | 1.0 | 0.00 | 0.04 | 0.00 | 92 | 1014.7 |
| 20260831133516 | 72 | 0.0 | 0.0 | 0.00 | 0.04 | 0.00 | 91 | 1014.7 | |
| 20260831132517 | 72 | 0.0 | 0.0 | 0.00 | 0.04 | 0.00 | 92 | 1014.8 | |
| 20260831131516 | 72 | 272 | 0.0 | 1.0 | 0.00 | 0.04 | 0.00 | 93 | 1014.9 |
| 20260831130657 | 72 | 227 | 0.0 | 1.0 | 0.00 | 0.04 | 0.00 | 93 | 1014.9 |
| 20260831125657 | 71 | 189 | 0.0 | 1.0 | 0.00 | 0.04 | 0.00 | 93 | 1015.0 |
| 20260831124517 | 71 | 0.0 | 0.0 | 0.00 | 0.04 | 0.00 | 94 | 1015.1 | |
| 20260831123517 | 71 | 210 | 0.0 | 1.0 | 0.00 | 0.04 | 0.00 | 93 | 1015.2 |
| 20260831122517 | 71 | 264 | 0.0 | 1.0 | 0.00 | 0.04 | 0.00 | 94 | 1015.4 |
| 20260831121518 | 71 | 241 | 0.0 | 1.0 | 0.00 | 0.04 | 0.00 | 95 | 1015.4 |
| 20260831120518 | 71 | 235 | 0.0 | 1.0 | 0.00 | 0.04 | 0.00 | 95 | 1015.5 |
| 20260831115518 | 71 | 0.0 | 0.0 | 0.00 | 0.04 | 0.00 | 95 | 1015.5 | |
| 20260831114518 | 70 | 0.0 | 0.0 | 0.00 | 0.04 | 0.00 | 95 | 1015.6 | |
| 20260831113519 | 70 | 234 | 0.0 | 0.0 | 0.00 | 0.04 | 0.00 | 95 | 1015.7 |
| 20260831112658 | 71 | 279 | 0.0 | 1.0 | 0.00 | 0.04 | 0.00 | 95 | 1015.9 |
| 20260831111518 | 71 | 245 | 0.0 | 1.0 | 0.00 | 0.04 | 0.00 | 95 | 1016.0 |
| 20260831110519 | 71 | 281 | 1.0 | 1.0 | 0.00 | 0.04 | 0.00 | 95 | 1016.1 |
| 20260831105519 | 71 | 280 | 0.0 | 1.0 | 0.00 | 0.04 | 0.00 | 95 | 1016.3 |